Time;durP1;ratioP1;P1;durP2;ratioP2;P2;SDS_P1;SDS_P2;PMS_P1;PMS_P2;Temp;Humidity;BMP_temperature;BMP_pressure;BME280_temperature;BME280_humidity;BME280_pressure;Samples;Min_cycle;Max_cycle;Signal;HPM_P1;HPM_P2
2024/01/05 00:00:31;;;;;;;5.80;1.80;;;;;;;9.38;65.37;96011.53;4894375;28;21135;-81
2024/01/05 00:02:59;;;;;;;4.43;1.38;;;;;;;9.38;65.53;96013.38;4906026;28;20761;-81
2024/01/05 00:05:25;;;;;;;5.72;1.20;;;;;;;9.44;65.31;96006.34;4897190;28;20241;-80
2024/01/05 00:07:51;;;;;;;4.60;1.90;;;;;;;9.48;65.37;96023.72;4921483;28;20470;-81
2024/01/05 00:10:17;;;;;;;8.38;1.98;;;;;;;9.29;64.54;96001.97;4937468;28;20279;-81
2024/01/05 00:12:42;;;;;;;6.03;1.40;;;;;;;9.27;65.44;95997.06;4891204;28;20241;-81
2024/01/05 00:15:08;;;;;;;5.45;1.67;;;;;;;9.26;66.17;96002.50;4890917;28;20361;-81
2024/01/05 00:17:33;;;;;;;4.85;1.35;;;;;;;9.16;65.15;96005.91;4874806;28;20276;-80
2024/01/05 00:19:59;;;;;;;6.35;1.48;;;;;;;9.20;65.08;95999.13;4940034;28;20206;-80
2024/01/05 00:22:24;;;;;;;6.45;1.38;;;;;;;9.18;65.37;95996.03;4877569;28;20205;-81
2024/01/05 00:24:49;;;;;;;4.25;0.98;;;;;;;9.22;65.18;95984.06;4893066;28;20217;-81
2024/01/05 00:27:15;;;;;;;5.85;1.20;;;;;;;9.33;65.27;95992.59;4891264;28;20241;-80
2024/01/05 00:29:40;;;;;;;3.78;1.20;;;;;;;9.31;65.21;95992.88;4909436;28;20284;-81
2024/01/05 00:32:06;;;;;;;5.18;1.30;;;;;;;9.34;64.67;95991.56;4907511;28;20220;-81
2024/01/05 00:34:32;;;;;;;5.93;1.92;;;;;;;9.25;64.50;95988.72;4906974;28;20340;-80
2024/01/05 00:36:57;;;;;;;3.08;1.63;;;;;;;9.31;64.47;95982.47;4907133;28;20284;-81
2024/01/05 00:39:23;;;;;;;4.95;1.27;;;;;;;9.36;65.50;95986.88;4890512;28;20118;-81
2024/01/05 00:41:48;;;;;;;5.90;1.40;;;;;;;9.28;65.36;95983.00;4897225;28;20356;-81
2024/01/05 00:44:14;;;;;;;4.80;1.10;;;;;;;9.31;65.20;95979.88;4921703;28;20278;-81
2024/01/05 00:46:39;;;;;;;4.55;1.80;;;;;;;9.23;64.83;95971.88;4905520;28;20474;-80
2024/01/05 00:49:05;;;;;;;5.57;1.20;;;;;;;9.32;64.87;95978.06;4906071;28;20194;-82
2024/01/05 00:51:31;;;;;;;3.33;0.90;;;;;;;9.32;65.03;95975.47;4905718;28;20563;-81
2024/01/05 00:53:56;;;;;;;4.45;1.27;;;;;;;9.32;64.87;95978.06;4872556;28;20238;-82
2024/01/05 00:56:22;;;;;;;2.63;1.00;;;;;;;9.34;64.64;95973.41;4920960;28;20311;-82
2024/01/05 00:58:47;;;;;;;4.40;1.35;;;;;;;9.32;64.44;95967.66;4890707;28;20296;-81
2024/01/05 01:01:14;;;;;;;7.10;1.52;;;;;;;9.36;64.83;95963.50;4906545;28;20250;-81
2024/01/05 01:03:39;;;;;;;6.45;1.77;;;;;;;9.33;65.10;95962.22;4935530;28;20258;-80
2024/01/05 01:06:05;;;;;;;4.32;1.17;;;;;;;9.35;65.13;95967.13;4904690;28;20641;-81
2024/01/05 01:08:30;;;;;;;4.68;1.23;;;;;;;9.26;64.51;95961.72;4889534;28;20658;-80
2024/01/05 01:10:55;;;;;;;4.22;1.13;;;;;;;9.36;64.21;95968.69;4904043;28;20625;-81
2024/01/05 01:13:21;;;;;;;4.53;1.33;;;;;;;9.31;64.52;95953.91;4907352;28;20278;-80
2024/01/05 01:15:46;;;;;;;5.07;1.23;;;;;;;9.49;64.38;95965.53;4918733;28;20284;-80
2024/01/05 01:18:11;;;;;;;5.93;1.45;;;;;;;9.39;64.09;95962.97;4905315;28;20175;-81
2024/01/05 01:20:37;;;;;;;4.70;1.65;;;;;;;9.49;64.34;95960.34;4883738;28;20636;-81
2024/01/05 01:23:02;;;;;;;2.83;1.40;;;;;;;9.52;64.11;95964.22;4884386;28;20713;-80
2024/01/05 01:25:28;;;;;;;5.22;1.80;;;;;;;9.56;64.61;95958.22;4898528;28;20189;-80
2024/01/05 01:27:53;;;;;;;3.28;1.48;;;;;;;9.53;64.42;95955.38;4890357;28;20779;-81
2024/01/05 01:30:19;;;;;;;5.20;1.48;;;;;;;9.54;64.00;95946.53;4887677;28;20607;-81
2024/01/05 01:32:44;;;;;;;5.53;1.20;;;;;;;9.68;64.64;95944.13;4891518;28;20890;-80
2024/01/05 01:35:09;;;;;;;4.07;1.50;;;;;;;9.65;64.50;95929.09;4919714;28;20226;-81
2024/01/05 01:37:35;;;;;;;3.92;1.55;;;;;;;9.72;64.73;95945.16;4904938;28;20302;-81
2024/01/05 01:40:01;;;;;;;5.00;1.83;;;;;;;9.74;63.84;95943.81;4918392;28;20167;-81
2024/01/05 01:42:27;;;;;;;4.30;1.00;;;;;;;9.83;64.17;95946.63;4920485;28;20237;-80
2024/01/05 01:44:52;;;;;;;6.18;1.13;;;;;;;9.83;64.34;95943.25;4885986;28;20788;-80
2024/01/05 01:47:18;;;;;;;3.97;1.33;;;;;;;9.80;63.97;95929.00;4900814;28;20371;-81
2024/01/05 01:49:44;;;;;;;9.60;2.05;;;;;;;9.84;62.29;95927.41;4907169;28;20193;-80
2024/01/05 01:52:09;;;;;;;4.55;0.95;;;;;;;9.86;63.65;95919.34;4888511;28;20321;-81
2024/01/05 01:54:35;;;;;;;3.00;1.45;;;;;;;9.90;62.45;95921.13;4886074;28;20209;-80
2024/01/05 01:57:02;;;;;;;4.82;1.15;;;;;;;9.96;63.10;95928.91;4915685;28;20288;-80
2024/01/05 01:59:28;;;;;;;3.75;1.42;;;;;;;9.87;63.28;95924.25;4899912;28;20457;-80
2024/01/05 02:01:54;;;;;;;8.20;2.13;;;;;;;9.54;63.07;95913.53;4899624;28;20331;-80
2024/01/05 02:04:19;;;;;;;7.55;1.60;;;;;;;9.64;62.87;95910.09;4902856;28;20245;-81
2024/01/05 02:06:45;;;;;;;2.75;0.82;;;;;;;9.83;62.89;95919.88;4917935;28;20209;-80
2024/01/05 02:09:12;;;;;;;6.50;1.40;;;;;;;9.87;62.74;95915.66;4901279;28;20312;-80
2024/01/05 02:11:37;;;;;;;4.18;1.13;;;;;;;9.86;61.38;95894.09;4885135;28;20618;-80
2024/01/05 02:14:03;;;;;;;4.75;1.60;;;;;;;9.91;61.92;95904.47;4882639;28;20194;-81
2024/01/05 02:16:28;;;;;;;6.20;0.80;;;;;;;9.87;61.85;95893.06;4887656;28;20250;-81
2024/01/05 02:18:55;;;;;;;2.90;1.17;;;;;;;9.89;61.30;95895.41;4906726;28;20727;-81
2024/01/05 02:21:24;;;;;;;4.03;0.98;;;;;;;9.82;62.03;95887.91;4900086;28;20581;-81
2024/01/05 02:23:49;;;;;;;6.15;1.15;;;;;;;9.79;62.01;95893.63;4907490;28;20715;-80
2024/01/05 02:26:15;;;;;;;4.95;1.30;;;;;;;9.73;61.36;95894.69;4920769;28;20220;-81
2024/01/05 02:28:41;;;;;;;4.00;1.00;;;;;;;9.68;62.43;95898.13;4908440;28;20201;-80
2024/01/05 02:31:06;;;;;;;5.07;0.98;;;;;;;9.71;62.33;95892.38;4902709;28;20228;-80
2024/01/05 02:33:31;;;;;;;4.57;1.35;;;;;;;9.69;61.87;95893.69;4906051;28;20464;-81
2024/01/05 02:35:57;;;;;;;2.47;0.90;;;;;;;9.64;62.57;95891.13;4890903;28;20292;-81
2024/01/05 02:38:22;;;;;;;2.65;1.05;;;;;;;9.68;62.02;95886.94;4912765;28;20034;-80
2024/01/05 02:40:48;;;;;;;3.10;0.75;;;;;;;9.79;61.96;95883.25;4904581;28;20281;-80
2024/01/05 02:43:13;;;;;;;3.35;0.77;;;;;;;9.79;61.93;95874.66;4897145;28;20248;-82
2024/01/05 02:45:39;;;;;;;4.10;1.05;;;;;;;9.87;62.26;95885.28;4897716;28;20601;-83
2024/01/05 02:48:05;;;;;;;5.43;1.00;;;;;;;9.87;61.71;95876.66;4926342;28;20672;-82
2024/01/05 02:50:30;;;;;;;4.18;1.55;;;;;;;10.01;61.89;95876.84;4920182;28;20263;-81
2024/01/05 02:52:56;;;;;;;3.65;0.85;;;;;;;10.03;61.85;95872.16;4894237;28;20309;-80
2024/01/05 02:55:21;;;;;;;3.10;0.80;;;;;;;10.04;61.51;95877.09;4901961;28;20336;-80
2024/01/05 02:57:46;;;;;;;3.45;0.85;;;;;;;10.06;62.13;95867.19;4906326;28;20057;-80
2024/01/05 03:00:12;;;;;;;3.40;1.17;;;;;;;10.13;61.63;95872.84;4909534;28;20213;-80
2024/01/05 03:02:37;;;;;;;3.70;1.20;;;;;;;10.05;61.29;95863.00;4892773;28;20374;-81
2024/01/05 03:05:04;;;;;;;5.57;0.98;;;;;;;10.08;61.39;95864.31;4915999;28;20279;-80
2024/01/05 03:07:29;;;;;;;5.65;1.65;;;;;;;9.98;60.95;95854.00;4909021;28;20738;-80
2024/01/05 03:09:55;;;;;;;2.53;0.98;;;;;;;10.13;61.82;95862.44;4893240;28;20152;-80
2024/01/05 03:12:20;;;;;;;3.00;1.42;;;;;;;10.00;61.85;95851.88;4915498;28;20106;-80
2024/01/05 03:14:46;;;;;;;5.25;1.00;;;;;;;10.12;62.14;95847.09;4901897;28;20280;-80
2024/01/05 03:17:11;;;;;;;3.05;1.15;;;;;;;9.97;61.88;95850.59;4890583;28;20292;-81
2024/01/05 03:19:36;;;;;;;4.85;1.30;;;;;;;10.15;61.94;95848.38;4905177;28;20280;-81
2024/01/05 03:22:02;;;;;;;5.93;1.52;;;;;;;10.14;61.40;95832.00;4905362;28;20189;-81
2024/01/05 03:24:28;;;;;;;6.75;1.10;;;;;;;10.23;61.31;95840.75;4888934;28;20314;-81
2024/01/05 03:26:53;;;;;;;3.78;1.08;;;;;;;10.21;61.92;95837.66;4906038;28;20033;-81
2024/01/05 03:29:18;;;;;;;3.25;1.00;;;;;;;10.19;61.60;95834.53;4873739;28;20641;-80
2024/01/05 03:31:44;;;;;;;2.67;0.90;;;;;;;10.15;61.62;95833.56;4888211;28;20401;-80
2024/01/05 03:34:11;;;;;;;4.05;1.00;;;;;;;10.19;61.23;95829.34;4887836;28;20190;-80
2024/01/05 03:36:37;;;;;;;3.33;0.90;;;;;;;10.22;61.97;95828.78;4920376;28;20306;-80
2024/01/05 03:39:02;;;;;;;3.42;1.48;;;;;;;10.26;61.93;95819.41;4889960;28;20281;-81
2024/01/05 03:41:28;;;;;;;5.60;1.10;;;;;;;10.27;61.32;95835.78;4902592;28;20298;-80
2024/01/05 03:43:54;;;;;;;3.38;1.38;;;;;;;10.16;61.49;95836.91;4903467;28;20240;-80
2024/01/05 03:46:19;;;;;;;3.47;1.20;;;;;;;10.27;61.24;95831.34;4901586;28;20203;-80
2024/01/05 03:48:45;;;;;;;4.07;1.33;;;;;;;10.25;61.66;95820.44;4887348;28;20747;-80
2024/01/05 03:51:10;;;;;;;4.20;1.08;;;;;;;10.29;61.51;95818.06;4873112;28;20218;-80
2024/01/05 03:53:35;;;;;;;4.57;2.05;;;;;;;10.33;61.61;95820.94;4922963;28;20368;-81
2024/01/05 03:56:02;;;;;;;4.38;1.15;;;;;;;10.32;62.51;95816.78;4886719;28;20205;-80
2024/01/05 03:58:28;;;;;;;3.65;1.40;;;;;;;10.18;62.05;95822.59;4890149;28;20904;-80
2024/01/05 04:00:54;;;;;;;3.97;1.00;;;;;;;10.19;62.64;95818.16;4905561;28;20224;-81
2024/01/05 04:03:19;;;;;;;3.40;1.73;;;;;;;10.29;62.43;95824.03;4887432;28;20665;-80
2024/01/05 04:05:45;;;;;;;3.90;1.10;;;;;;;10.27;62.00;95820.19;4902200;28;20219;-80
2024/01/05 04:08:11;;;;;;;4.85;1.20;;;;;;;10.21;62.18;95811.66;4906192;28;20179;-80
2024/01/05 04:10:38;;;;;;;8.40;1.65;;;;;;;10.32;62.58;95811.59;4903331;28;20652;-81
2024/01/05 04:13:04;;;;;;;4.32;1.40;;;;;;;10.34;62.65;95812.09;4904797;28;20255;-80
2024/01/05 04:15:34;;;;;;;5.95;1.95;;;;;;;10.39;63.09;95801.63;4902642;28;20361;-81
2024/01/05 04:18:00;;;;;;;2.63;1.33;;;;;;;10.24;63.48;95798.06;4902435;28;20660;-80
2024/01/05 04:20:25;;;;;;;4.07;1.63;;;;;;;10.20;63.62;95796.31;4903807;28;20233;-81
2024/01/05 04:22:51;;;;;;;3.38;1.40;;;;;;;10.10;63.61;95786.78;4886247;28;20165;-80
2024/01/05 04:25:16;;;;;;;3.45;1.15;;;;;;;10.10;63.91;95789.38;4918770;28;20267;-80
2024/01/05 04:27:42;;;;;;;2.80;1.10;;;;;;;10.19;64.17;95790.31;4901546;28;20243;-80
2024/01/05 04:30:07;;;;;;;3.90;0.98;;;;;;;10.09;64.84;95782.63;4884967;28;20554;-80
2024/01/05 04:32:33;;;;;;;5.10;1.65;;;;;;;10.15;64.61;95786.75;4914768;28;20284;-79
2024/01/05 04:34:58;;;;;;;4.63;1.27;;;;;;;10.19;64.07;95786.97;4888842;28;20201;-81
2024/01/05 04:37:23;;;;;;;3.45;1.05;;;;;;;10.15;64.94;95791.94;4914866;28;20644;-81
2024/01/05 04:39:49;;;;;;;4.70;1.38;;;;;;;10.18;63.77;95791.41;4872620;28;21029;-81
2024/01/05 04:42:14;;;;;;;2.90;1.05;;;;;;;10.23;64.56;95791.34;4885331;28;20224;-80
2024/01/05 04:44:40;;;;;;;5.25;1.58;;;;;;;10.19;64.24;95802.56;4931254;28;20167;-81
2024/01/05 04:47:05;;;;;;;3.72;2.08;;;;;;;10.17;63.96;95797.63;4915609;28;20387;-81
2024/01/05 04:49:33;;;;;;;4.40;1.38;;;;;;;10.23;64.15;95799.16;4870864;28;20198;-81
2024/01/05 04:52:00;;;;;;;3.40;1.15;;;;;;;10.18;64.01;95801.00;4883606;28;20722;-81
2024/01/05 04:54:25;;;;;;;6.13;2.20;;;;;;;10.29;63.81;95798.03;4902451;28;20672;-81
2024/01/05 04:56:51;;;;;;;5.78;1.60;;;;;;;10.25;63.99;95791.84;4901654;28;20252;-81
2024/01/05 04:59:16;;;;;;;3.85;1.92;;;;;;;10.11;64.89;95796.16;4901290;28;20294;-81
2024/01/05 05:01:42;;;;;;;5.45;1.55;;;;;;;10.02;65.85;95797.78;4884932;28;20649;-81
2024/01/05 05:04:07;;;;;;;5.50;1.45;;;;;;;10.12;65.68;95797.69;4900127;28;20241;-80
2024/01/05 05:06:33;;;;;;;2.60;0.90;;;;;;;10.25;65.11;95791.06;4919687;28;20253;-81
2024/01/05 05:08:58;;;;;;;6.53;1.77;;;;;;;10.03;66.30;95794.91;4882380;28;20793;-84
2024/01/05 05:11:23;;;;;;;4.35;1.60;;;;;;;10.18;65.38;95795.81;4900822;28;20261;-80
2024/01/05 05:13:49;;;;;;;4.85;1.42;;;;;;;10.16;65.67;95796.09;4906852;28;20242;-81
2024/01/05 05:16:14;;;;;;;2.65;1.05;;;;;;;10.16;65.57;95783.09;4900953;28;20298;-81
2024/01/05 05:18:39;;;;;;;3.55;1.10;;;;;;;10.17;66.09;95794.25;4894396;28;20186;-81
2024/01/05 05:21:05;;;;;;;4.05;1.42;;;;;;;10.09;66.54;95793.03;4898342;28;20140;-81
2024/01/05 05:23:30;;;;;;;4.22;1.38;;;;;;;10.12;66.11;95795.84;4895885;28;20831;-80
2024/01/05 05:25:57;;;;;;;3.67;1.25;;;;;;;10.05;66.93;95802.44;4888619;28;20160;-80
2024/01/05 05:28:23;;;;;;;4.10;2.13;;;;;;;10.21;65.66;95800.47;4883087;28;20168;-81
2024/01/05 05:30:48;;;;;;;4.43;1.30;;;;;;;10.21;65.74;95795.25;4881746;28;20114;-80
2024/01/05 05:33:14;;;;;;;3.55;1.10;;;;;;;10.18;66.47;95801.78;4901763;28;20214;-80
2024/01/05 05:35:39;;;;;;;8.07;1.60;;;;;;;10.17;66.73;95810.63;4885066;28;20776;-82
2024/01/05 05:38:06;;;;;;;3.60;1.77;;;;;;;10.16;66.27;95796.09;4880727;28;20171;-81
2024/01/05 05:40:32;;;;;;;3.63;1.05;;;;;;;10.22;66.38;95797.59;4900444;28;20661;-82
2024/01/05 05:42:57;;;;;;;4.07;1.92;;;;;;;10.30;66.34;95809.22;4915595;28;20647;-81
2024/01/05 05:45:23;;;;;;;4.40;1.58;;;;;;;10.20;66.20;95799.69;4887930;28;20190;-80
2024/01/05 05:47:51;;;;;;;5.68;1.92;;;;;;;10.28;66.20;95803.50;4896951;28;20213;-81
2024/01/05 05:50:17;;;;;;;5.13;1.80;;;;;;;10.30;66.37;95794.38;4894564;28;20652;-80
2024/01/05 05:52:43;;;;;;;5.30;2.03;;;;;;;10.20;66.63;95799.69;4914494;28;20485;-80
2024/01/05 05:55:12;;;;;;;4.03;1.10;;;;;;;10.29;65.57;95813.63;4901858;28;20137;-81
2024/01/05 05:57:39;;;;;;;2.22;1.38;;;;;;;10.28;66.47;95817.31;4903911;28;20617;-80
2024/01/05 06:00:08;;;;;;;6.75;2.05;;;;;;;10.22;66.46;95818.41;4886808;28;20264;-80
2024/01/05 06:02:34;;;;;;;4.05;1.90;;;;;;;10.35;66.62;95816.22;4887062;28;20197;-81
2024/01/05 06:05:02;;;;;;;3.15;1.45;;;;;;;10.36;66.38;95802.16;4901256;28;20122;-81
2024/01/05 06:07:27;;;;;;;4.93;1.52;;;;;;;10.23;66.46;95806.94;4885983;28;20312;-80
2024/01/05 06:09:52;;;;;;;4.57;1.60;;;;;;;10.23;65.67;95796.53;4900054;28;20254;-81
2024/01/05 06:12:18;;;;;;;6.82;2.10;;;;;;;10.22;66.14;95808.00;4888597;28;20201;-80
2024/01/05 06:14:47;;;;;;;4.72;1.83;;;;;;;10.17;66.72;95809.88;4912226;28;20254;-80
2024/01/05 06:17:12;;;;;;;5.47;1.63;;;;;;;9.94;66.51;95807.72;4916495;28;20175;-80
2024/01/05 06:19:38;;;;;;;5.53;1.67;;;;;;;10.09;66.46;95809.44;4885419;28;20759;-80
2024/01/05 06:22:04;;;;;;;3.20;1.40;;;;;;;10.10;66.73;95816.16;4885307;28;20695;-80
2024/01/05 06:24:29;;;;;;;7.57;1.35;;;;;;;10.05;66.53;95802.44;4899779;28;20672;-81
2024/01/05 06:26:54;;;;;;;4.28;1.92;;;;;;;10.09;66.46;95806.03;4902513;28;20225;-80
2024/01/05 06:29:20;;;;;;;6.55;1.50;;;;;;;10.12;66.67;95803.66;4900452;28;20248;-80
2024/01/05 06:31:45;;;;;;;3.97;1.70;;;;;;;10.04;66.91;95800.88;4902924;28;20336;-80
2024/01/05 06:34:10;;;;;;;3.10;1.42;;;;;;;10.00;67.48;95792.09;4877937;28;20530;-81
2024/01/05 06:36:36;;;;;;;4.82;1.65;;;;;;;10.10;66.68;95799.78;4890531;28;20307;-81
2024/01/05 06:39:01;;;;;;;2.45;1.40;;;;;;;10.16;66.93;95793.50;4881504;28;20321;-81
2024/01/05 06:41:27;;;;;;;3.17;1.40;;;;;;;10.13;66.62;95801.84;4885975;28;20205;-81
2024/01/05 06:43:52;;;;;;;2.47;1.42;;;;;;;10.11;66.77;95796.91;4907176;28;20203;-80
2024/01/05 06:46:20;;;;;;;5.70;1.50;;;;;;;10.11;66.58;95798.75;4901167;28;20170;-81
2024/01/05 06:48:46;;;;;;;4.22;1.92;;;;;;;10.15;66.33;95797.13;4903045;28;20188;-82
2024/01/05 06:51:11;;;;;;;5.05;1.38;;;;;;;10.15;66.42;95794.53;4899823;28;20304;-81
2024/01/05 06:53:36;;;;;;;3.85;2.08;;;;;;;10.11;66.38;95790.94;4907267;28;20239;-80
2024/01/05 06:56:02;;;;;;;4.90;2.80;;;;;;;10.16;66.25;95795.31;4886986;28;20362;-81
2024/01/05 06:58:28;;;;;;;5.05;2.22;;;;;;;10.27;66.24;95788.97;4875610;28;20388;-80
2024/01/05 07:00:53;;;;;;;4.55;1.95;;;;;;;10.09;66.81;95798.22;4920218;28;20053;-80
2024/01/05 07:03:19;;;;;;;4.18;1.42;;;;;;;10.24;66.00;95795.47;4902502;28;20250;-80
2024/01/05 07:05:45;;;;;;;3.67;1.40;;;;;;;10.15;66.72;95786.75;4904088;28;20291;-81
2024/01/05 07:08:11;;;;;;;4.53;1.65;;;;;;;10.11;66.37;95796.16;4918822;28;20183;-79
2024/01/05 07:10:36;;;;;;;3.50;2.00;;;;;;;10.19;66.48;95792.94;4873126;28;20210;-80
2024/01/05 07:13:05;;;;;;;8.15;1.50;;;;;;;10.18;66.28;95786.19;4923869;28;20647;-81
2024/01/05 07:15:31;;;;;;;4.85;1.55;;;;;;;10.26;66.25;95803.81;4906964;28;20158;-81
2024/01/05 07:17:56;;;;;;;3.95;1.58;;;;;;;10.16;66.16;95803.09;4919300;28;20256;-81
2024/01/05 07:20:22;;;;;;;3.83;1.80;;;;;;;10.32;65.30;95801.19;4903893;28;20370;-80
2024/01/05 07:22:47;;;;;;;4.43;1.55;;;;;;;10.28;65.17;95808.72;4888404;28;20246;-81
2024/01/05 07:25:12;;;;;;;5.35;1.40;;;;;;;10.36;64.98;95804.78;4887218;28;20257;-80
2024/01/05 07:27:38;;;;;;;5.00;1.45;;;;;;;10.32;64.66;95801.19;4903277;28;20265;-80
2024/01/05 07:30:04;;;;;;;5.80;1.02;;;;;;;10.27;65.11;95810.53;4909369;28;20235;-80
2024/01/05 07:32:30;;;;;;;5.45;2.17;;;;;;;10.32;65.05;95803.78;4889449;28;20198;-81
2024/01/05 07:34:55;;;;;;;4.63;1.55;;;;;;;10.38;64.90;95797.47;4888251;28;20224;-81
2024/01/05 07:37:21;;;;;;;3.90;1.52;;;;;;;10.26;64.64;95800.41;4896268;28;20921;-81
2024/01/05 07:39:47;;;;;;;2.55;1.58;;;;;;;10.32;64.98;95807.16;4902043;28;20646;-80
2024/01/05 07:42:12;;;;;;;4.75;1.27;;;;;;;10.26;64.69;95803.00;4918666;28;20198;-81
2024/01/05 07:44:38;;;;;;;4.53;1.65;;;;;;;10.20;65.29;95789.28;4925311;28;20417;-81
2024/01/05 07:47:04;;;;;;;4.72;1.70;;;;;;;10.28;64.91;95796.50;4911389;28;20300;-80
2024/01/05 07:49:29;;;;;;;4.88;1.40;;;;;;;10.24;65.39;95790.28;4912550;28;20181;-81
2024/01/05 07:51:55;;;;;;;4.05;1.55;;;;;;;10.17;65.33;95791.66;4910560;28;20284;-80
2024/01/05 07:54:20;;;;;;;4.70;1.95;;;;;;;10.13;65.00;95783.63;4892901;28;20208;-79
2024/01/05 07:56:45;;;;;;;4.05;1.67;;;;;;;10.17;65.00;95776.06;4921888;28;20264;-81
2024/01/05 07:59:11;;;;;;;6.97;1.48;;;;;;;10.20;64.83;95765.13;4908203;28;20448;-81
2024/01/05 08:01:36;;;;;;;3.17;1.48;;;;;;;10.28;64.52;95770.47;4885731;28;20189;-80
2024/01/05 08:04:01;;;;;;;5.13;1.20;;;;;;;10.21;64.50;95777.03;4900597;28;20623;-80
2024/01/05 08:06:27;;;;;;;5.78;1.63;;;;;;;10.18;64.75;95770.59;4887248;28;20427;-81
2024/01/05 08:08:52;;;;;;;3.70;1.67;;;;;;;10.27;64.73;95774.13;4905992;28;20273;-81
2024/01/05 08:11:18;;;;;;;5.65;2.13;;;;;;;10.17;64.45;95769.03;4885009;28;20179;-80
2024/01/05 08:13:48;;;;;;;4.05;1.60;;;;;;;10.16;64.83;95777.91;4906144;28;20360;-81
2024/01/05 08:16:14;;;;;;;6.70;1.70;;;;;;;10.01;65.96;95775.44;4924988;28;20580;-80
2024/01/05 08:18:40;;;;;;;5.43;1.50;;;;;;;10.20;65.10;95770.31;4916252;28;20221;-81
2024/01/05 08:21:05;;;;;;;4.57;1.20;;;;;;;10.13;64.69;95766.19;4916412;28;21360;-81
2024/01/05 08:23:34;;;;;;;4.72;1.55;;;;;;;10.16;65.46;95770.09;4889080;28;20169;-81
2024/01/05 08:26:03;;;;;;;4.05;1.13;;;;;;;10.16;65.53;95762.28;4870732;28;20356;-81
2024/01/05 08:28:30;;;;;;;3.33;1.33;;;;;;;10.16;65.20;95761.50;4885827;28;20212;-81
2024/01/05 08:30:56;;;;;;;2.50;1.40;;;;;;;10.10;65.65;95758.19;4887844;28;20209;-81
2024/01/05 08:33:21;;;;;;;4.93;1.50;;;;;;;10.08;65.05;95752.47;4899604;28;20191;-80
2024/01/05 08:35:47;;;;;;;2.95;1.23;;;;;;;10.26;64.89;95764.00;4906786;28;20194;-82
2024/01/05 08:38:14;;;;;;;7.45;1.52;;;;;;;10.10;65.02;95753.75;4905725;28;20285;-81
2024/01/05 08:40:39;;;;;;;4.25;1.67;;;;;;;10.22;65.07;95760.41;4890715;28;20198;-81
2024/01/05 08:43:05;;;;;;;4.72;1.48;;;;;;;10.19;65.00;95748.72;4890821;28;20785;-81
2024/01/05 08:45:32;;;;;;;8.18;1.92;;;;;;;10.36;65.15;95750.91;4885328;28;20260;-81
2024/01/05 08:47:58;;;;;;;5.40;1.48;;;;;;;10.32;65.05;95755.13;4897749;28;20420;-81
2024/01/05 08:50:23;;;;;;;5.63;1.55;;;;;;;10.37;64.72;95754.28;4920747;28;20269;-80
2024/01/05 08:52:49;;;;;;;3.28;1.42;;;;;;;10.34;64.62;95752.25;4889215;28;20234;-81
2024/01/05 08:55:15;;;;;;;3.60;1.50;;;;;;;10.31;64.46;95763.94;4903278;28;20592;-80
2024/01/05 08:57:40;;;;;;;2.22;1.13;;;;;;;10.49;65.18;95762.47;4886715;28;20284;-81
2024/01/05 09:00:09;;;;;;;5.10;1.17;;;;;;;10.43;64.97;95758.38;4887743;28;20189;-81
2024/01/05 09:02:38;;;;;;;2.92;1.52;;;;;;;10.43;65.35;95769.53;4901753;28;20353;-81
2024/01/05 09:05:04;;;;;;;4.97;1.85;;;;;;;10.60;64.28;95776.13;4884438;28;20398;-81
2024/01/05 09:07:33;;;;;;;4.05;1.77;;;;;;;10.68;64.71;95778.91;4915005;28;20276;-81
2024/01/05 09:09:58;;;;;;;4.57;1.40;;;;;;;10.63;64.43;95773.75;4893366;28;20186;-81
2024/01/05 09:12:24;;;;;;;4.85;1.10;;;;;;;10.80;63.63;95793.34;4899253;28;20242;-81
2024/01/05 09:14:49;;;;;;;4.72;1.45;;;;;;;10.53;64.83;95784.28;4905177;28;20200;-80
2024/01/05 09:17:15;;;;;;;4.57;1.17;;;;;;;10.61;63.94;95782.91;4890871;28;20252;-81
2024/01/05 09:19:40;;;;;;;3.85;1.20;;;;;;;10.29;65.08;95798.03;4902288;28;20273;-79
2024/01/05 09:22:07;;;;;;;3.22;1.00;;;;;;;10.44;64.32;95794.53;4876371;28;20641;-81
2024/01/05 09:24:33;;;;;;;2.28;1.23;;;;;;;10.39;64.61;95802.38;4904799;28;20712;-80
2024/01/05 09:26:58;;;;;;;3.83;1.45;;;;;;;10.62;63.81;95813.06;4903217;28;20175;-82
2024/01/05 09:29:24;;;;;;;2.67;1.20;;;;;;;10.59;64.14;95817.00;4901968;28;20164;-81
2024/01/05 09:31:51;;;;;;;5.35;1.83;;;;;;;10.78;64.09;95817.06;4904647;28;20194;-81
2024/01/05 09:34:17;;;;;;;2.55;1.20;;;;;;;10.73;63.77;95824.94;4904783;28;20361;-81
2024/01/05 09:36:42;;;;;;;4.63;1.38;;;;;;;10.75;63.55;95827.25;4902465;28;20785;-81
2024/01/05 09:39:09;;;;;;;3.83;1.40;;;;;;;10.83;64.44;95826.63;4885741;28;20206;-82
2024/01/05 09:41:35;;;;;;;2.13;0.80;;;;;;;10.95;63.33;95834.81;4899334;28;20659;-81
2024/01/05 09:44:00;;;;;;;2.80;1.10;;;;;;;10.72;63.46;95830.41;4903949;28;20197;-81
2024/01/05 09:46:28;;;;;;;4.97;1.30;;;;;;;10.66;63.88;95827.09;4917881;28;20190;-80
2024/01/05 09:48:56;;;;;;;4.40;1.00;;;;;;;10.82;63.26;95836.25;4889649;28;20316;-81
2024/01/05 09:51:22;;;;;;;2.42;0.80;;;;;;;10.96;62.69;95831.16;4890090;28;20210;-81
2024/01/05 09:53:47;;;;;;;5.45;1.10;;;;;;;11.09;62.63;95844.53;4898037;28;20676;-81
2024/01/05 09:56:14;;;;;;;1.70;0.77;;;;;;;11.11;62.20;95845.06;4917769;28;20201;-81
2024/01/05 09:58:39;;;;;;;3.53;0.90;;;;;;;10.97;62.50;95842.38;4891452;28;20201;-82
2024/01/05 10:01:11;;;;;;;1.65;1.10;;;;;;;11.00;62.87;95847.78;4907292;28;20214;-82
2024/01/05 10:03:36;;;;;;;4.32;0.90;;;;;;;11.04;62.67;95842.78;4890177;28;20175;-79
2024/01/05 10:06:01;;;;;;;3.70;1.17;;;;;;;11.14;62.83;95842.66;4887416;28;20131;-81
2024/01/05 10:08:27;;;;;;;4.72;1.25;;;;;;;11.10;62.43;95846.88;4892525;28;20780;-81
2024/01/05 10:10:56;;;;;;;1.63;1.30;;;;;;;10.83;62.48;95842.25;4906964;28;20253;-81
2024/01/05 10:13:22;;;;;;;3.63;1.00;;;;;;;10.90;62.71;95844.50;4902416;28;20330;-81
2024/01/05 10:15:51;;;;;;;4.45;1.40;;;;;;;11.17;61.99;95851.72;4896940;28;20887;-81
2024/01/05 10:18:17;;;;;;;2.88;0.93;;;;;;;11.13;62.03;95842.94;4901269;28;20303;-82
2024/01/05 10:20:42;;;;;;;3.35;1.02;;;;;;;11.17;62.36;95841.31;4901530;28;20229;-80
2024/01/05 10:23:08;;;;;;;2.40;0.93;;;;;;;11.26;62.03;95844.84;4909161;28;20472;-82
2024/01/05 10:25:36;;;;;;;3.38;1.00;;;;;;;11.05;62.84;95845.13;4911589;28;20257;-81
2024/01/05 10:28:01;;;;;;;1.50;0.82;;;;;;;11.08;61.73;95832.59;4934456;28;20159;-82
2024/01/05 10:30:30;;;;;;;2.88;0.88;;;;;;;11.27;61.89;95837.81;4906271;28;20202;-82
2024/01/05 10:33:06;;;;;;;4.22;1.20;;;;;;;11.28;61.10;95826.34;4894398;28;20187;-82
2024/01/05 10:35:34;;;;;;;5.03;1.52;;;;;;;11.02;61.67;95824.84;4908346;28;20613;-80
2024/01/05 10:38:10;;;;;;;3.78;0.70;;;;;;;11.05;61.97;95834.69;4901902;28;20451;-82
2024/01/05 10:40:35;;;;;;;2.28;0.90;;;;;;;11.18;62.13;95833.22;4913606;28;20190;-82
2024/01/05 10:43:09;;;;;;;2.40;0.95;;;;;;;11.40;61.79;95835.28;4879715;28;20214;-81
2024/01/05 10:45:35;;;;;;;2.35;0.90;;;;;;;11.30;62.01;95838.00;4895429;28;20559;-82
2024/01/05 10:48:03;;;;;;;4.25;0.90;;;;;;;11.16;62.55;95834.56;4908243;28;20186;-81
2024/01/05 10:50:30;;;;;;;2.35;0.77;;;;;;;11.16;62.13;95845.00;4907858;28;20197;-81
2024/01/05 10:52:57;;;;;;;1.27;0.77;;;;;;;11.18;61.95;95830.63;4908303;28;20187;-81
2024/01/05 10:55:22;;;;;;;2.90;0.70;;;;;;;11.11;62.49;95821.63;4919016;28;20210;-80
2024/01/05 10:57:47;;;;;;;2.42;1.02;;;;;;;11.33;61.57;95831.47;4892079;28;20635;-80
2024/01/05 11:00:13;;;;;;;3.63;1.48;;;;;;;11.27;61.66;95828.16;4908679;28;20175;-81
2024/01/05 11:02:40;;;;;;;2.20;1.20;;;;;;;11.24;62.36;95823.50;4922192;28;20885;-80
2024/01/05 11:05:10;;;;;;;4.43;0.82;;;;;;;11.09;62.62;95821.09;4881853;28;20281;-80
2024/01/05 11:07:36;;;;;;;2.33;0.90;;;;;;;11.36;62.57;95810.84;4892859;28;20256;-80
2024/01/05 11:10:20;;;;;;;4.25;0.90;;;;;;;11.27;62.68;95812.50;4939475;28;20266;-81
2024/01/05 11:13:03;;;;;;;4.85;1.17;;;;;;;11.42;61.76;95816.75;4905824;28;20300;-81
2024/01/05 11:15:31;;;;;;;3.53;1.33;;;;;;;11.41;61.13;95809.97;4891144;28;20793;-80
2024/01/05 11:18:05;;;;;;;4.85;1.67;;;;;;;11.58;61.58;95815.47;4920255;28;20258;-80
2024/01/05 11:20:51;;;;;;;7.60;1.08;;;;;;;11.60;61.84;95815.16;4910645;28;20427;-80
2024/01/05 11:23:19;;;;;;;4.13;0.93;;;;;;;11.49;61.31;95803.38;4903766;28;20174;-80
2024/01/05 11:25:45;;;;;;;1.98;0.82;;;;;;;11.20;61.81;95799.06;4909975;28;20232;-81
2024/01/05 11:28:34;;;;;;;3.58;1.40;;;;;;;11.62;61.42;95800.03;4877871;28;20327;-81
2024/01/05 11:30:59;;;;;;;3.88;1.20;;;;;;;11.53;61.86;95792.09;4923851;28;20214;-81